KHIB/HIB METAR and TAF weather

Enter ICAO airport designator
Station Type Date Time Source
KHIB METAR 2019/11/18 04:32 UTC NOAA

KHIB 180432Z AUTO 00000KT 10SM OVC014 M03/M06 A2979 RMK AO2 T10281061


Station Type Date Time Source
KHIB Decoded METAR 2019/11/18 04:32 UTC NOAA

CHISHOLM-HIBBING AIRPORT, MN, United States (KHIB) 47-23N 92-50W 412M
Nov 17, 2019 - 11:32 PM EST / 2019.11.18 0432 UTC
Wind: Calm:0
Visibility: 10 mile(s):0
Sky conditions: overcast
Temperature: 27.0 F (-2.8 C)
Dew Point: 21.0 F (-6.1 C)
Relative Humidity: 77%
Pressure (altimeter): 29.79 in. Hg (1008 hPa)
ob: KHIB 180432Z AUTO 00000KT 10SM OVC014 M03/M06 A2979 RMK AO2 T10281061
cycle: 4

Station Type Date Time Source
KHIB TAF 2019/11/17 20:06 UTC NOAA

TAF
AMD KHIB 172003Z 1720/1818 30009KT P6SM OVC010
FM181000 00000KT P6SM BKN025

Example: see airport list